createdAt,value
2023-04-04T00:04:14.557Z,96094.69
2023-04-04T00:09:16.098Z,96088.22
2023-04-04T00:14:17.744Z,96083.47
2023-04-04T00:19:19.248Z,96082.72
2023-04-04T00:24:20.791Z,96085.44
2023-04-04T00:29:22.284Z,96085.09
2023-04-04T00:34:23.774Z,96079.88
2023-04-04T00:39:25.431Z,96080.84
2023-04-04T00:44:27.001Z,96093.63
2023-04-04T00:49:28.552Z,96095.38
2023-04-04T00:54:30.603Z,96089.59
2023-04-04T00:59:32.953Z,96077.91
2023-04-04T01:04:35.851Z,96073.78
2023-04-04T01:09:37.424Z,96067.06
2023-04-04T01:14:39.032Z,96070.00
2023-04-04T01:19:49.597Z,96067.72
2023-04-04T01:24:56.104Z,96067.41
2023-04-04T01:30:00.114Z,96071.56
2023-04-04T01:35:12.093Z,96060.97
2023-04-04T01:40:23.882Z,96061.22
2023-04-04T01:45:28.224Z,96063.16
2023-04-04T01:50:32.521Z,96058.56
2023-04-04T01:55:34.281Z,96062.44
2023-04-04T02:00:37.035Z,96062.25
2023-04-04T02:05:38.512Z,96063.41
2023-04-04T02:10:40.213Z,96064.13
2023-04-04T02:15:42.036Z,96069.19
2023-04-04T02:20:43.707Z,96071.28
2023-04-04T02:25:45.186Z,96055.44
2023-04-04T02:30:46.706Z,96054.06
2023-04-04T02:35:48.295Z,96054.78
2023-04-04T02:40:49.881Z,96053.44
2023-04-04T02:45:51.504Z,96055.34
2023-04-04T02:50:57.236Z,96048.41
2023-04-04T02:55:58.807Z,96057.19
2023-04-04T03:01:00.831Z,96050.88
2023-04-04T03:06:07.316Z,96047.09
2023-04-04T03:11:08.817Z,96051.41
2023-04-04T03:16:10.726Z,96051.75
2023-04-04T03:21:20.621Z,96047.53
2023-04-04T03:26:22.184Z,96049.03
2023-04-04T03:31:23.925Z,96046.50
2023-04-04T03:36:25.462Z,96046.66
2023-04-04T03:41:26.945Z,96040.47
2023-04-04T03:46:29.063Z,96045.13
2023-04-04T03:51:31.128Z,96047.63
2023-04-04T03:56:32.853Z,96047.91
2023-04-04T04:01:39.115Z,96058.09
2023-04-04T04:06:40.807Z,96055.63
2023-04-04T04:11:42.315Z,96064.13
2023-04-04T04:16:43.813Z,96059.19
2023-04-04T04:21:49.823Z,96063.44
2023-04-04T04:26:52.037Z,96065.84
2023-04-04T04:31:53.916Z,96062.56
2023-04-04T04:36:58.641Z,96070.78
2023-04-04T04:42:04.877Z,96070.78
2023-04-04T04:47:07.413Z,96070.50
2023-04-04T04:52:09.395Z,96084.31
2023-04-04T04:57:14.963Z,96079.81
2023-04-04T05:02:19.090Z,96084.25
2023-04-04T05:07:22.140Z,96091.03
2023-04-04T05:12:24.604Z,96092.09
2023-04-04T05:17:27.821Z,96088.63
2023-04-04T05:22:37.129Z,96088.81
2023-04-04T05:27:39.605Z,96098.63
2023-04-04T05:32:41.522Z,96096.47
2023-04-04T05:37:50.645Z,96096.28
2023-04-04T05:42:57.905Z,96099.63
2023-04-04T05:48:05.597Z,96106.13
2023-04-04T05:53:12.781Z,96101.09
2023-04-04T05:58:20.609Z,96105.22
2023-04-04T06:03:26.876Z,96103.03
2023-04-04T06:08:28.658Z,96114.94
2023-04-04T06:13:30.144Z,96110.22
2023-04-04T06:18:37.136Z,96111.16
2023-04-04T06:23:39.503Z,96111.13
2023-04-04T06:28:50.928Z,96106.53
2023-04-04T06:33:57.786Z,96108.22
2023-04-04T06:38:59.752Z,96099.59
2023-04-04T06:44:01.348Z,96103.06
2023-04-04T06:49:03.001Z,96105.69
2023-04-04T06:54:04.531Z,96102.56
2023-04-04T06:59:06.071Z,96117.44
2023-04-04T07:04:07.531Z,96111.16
2023-04-04T07:09:15.391Z,96098.97
2023-04-04T07:14:23.707Z,96105.50
2023-04-04T07:19:25.206Z,96108.72
2023-04-04T07:24:26.643Z,96111.56
2023-04-04T07:29:28.054Z,96104.63
2023-04-04T07:34:29.532Z,96106.53
2023-04-04T07:39:30.973Z,96111.75
2023-04-04T07:44:32.396Z,96108.59
2023-04-04T07:49:33.875Z,96115.75
2023-04-04T07:54:36.059Z,96114.59
2023-04-04T07:59:37.496Z,96107.50
2023-04-04T08:04:39.015Z,96113.72
2023-04-04T08:09:40.588Z,96104.06
2023-04-04T08:14:42.081Z,96111.06
2023-04-04T08:19:43.523Z,96112.81
2023-04-04T08:24:45.255Z,96107.22
2023-04-04T08:29:46.777Z,96110.69
2023-04-04T08:34:48.374Z,96108.22
2023-04-04T08:39:49.832Z,96107.19
2023-04-04T08:44:53.264Z,96107.88
2023-04-04T08:49:54.875Z,96115.53
2023-04-04T08:54:58.003Z,96110.78
2023-04-04T09:00:00.108Z,96117.97
2023-04-04T09:05:06.999Z,96114.97
2023-04-04T09:10:10.040Z,96109.41
2023-04-04T09:15:12.060Z,96116.38
2023-04-04T09:20:35.212Z,96111.38
2023-04-04T09:25:37.302Z,96111.38
2023-04-04T09:30:38.861Z,96105.75
2023-04-04T09:35:45.050Z,96112.00
2023-04-04T09:40:46.606Z,96107.31
2023-04-04T09:45:49.279Z,96101.97
2023-04-04T09:50:51.308Z,96100.31
2023-04-04T09:55:54.546Z,96100.41
2023-04-04T10:01:00.513Z,96094.88
2023-04-04T10:06:09.599Z,96102.66
2023-04-04T10:11:12.571Z,96107.56
2023-04-04T10:16:14.393Z,96100.69
2023-04-04T10:21:17.312Z,96099.31
2023-04-04T10:26:18.839Z,96094.78
2023-04-04T10:31:25.858Z,96098.69
2023-04-04T10:36:38.374Z,96092.53
2023-04-04T10:41:40.859Z,96072.50
2023-04-04T10:46:46.372Z,96089.91
2023-04-04T10:51:56.512Z,96077.63
2023-04-04T10:56:58.695Z,96089.50
2023-04-04T11:02:02.337Z,96082.13
2023-04-04T11:07:08.166Z,96079.56
2023-04-04T11:12:10.110Z,96076.09
2023-04-04T11:17:11.962Z,96065.97
2023-04-04T11:22:14.511Z,96067.75
2023-04-04T11:27:16.130Z,96067.88
2023-04-04T11:33:03.826Z,96064.69
2023-04-04T11:38:13.687Z,96069.19
2023-04-04T11:43:15.163Z,96072.03
2023-04-04T11:48:19.121Z,96069.13
2023-04-04T11:53:20.686Z,96072.25
2023-04-04T11:58:22.227Z,96057.63
2023-04-04T12:03:24.043Z,96056.44
2023-04-04T12:08:25.741Z,96064.81
2023-04-04T12:13:31.035Z,96062.22
2023-04-04T12:18:32.488Z,96065.63
2023-04-04T12:23:34.824Z,96058.53
2023-04-04T12:28:36.695Z,96057.22
2023-04-04T12:33:40.279Z,96051.28
2023-04-04T12:39:02.939Z,96060.91
2023-04-04T12:44:06.256Z,96063.72
2023-04-04T12:49:10.897Z,96054.84
2023-04-04T12:54:31.741Z,96051.78
2023-04-04T12:59:35.500Z,96051.53
2023-04-04T13:04:37.588Z,96056.97
2023-04-04T13:09:53.412Z,96046.47
2023-04-04T13:14:59.745Z,96042.13
2023-04-04T13:20:01.212Z,96035.97
2023-04-04T13:25:03.799Z,96037.13
2023-04-04T13:30:05.892Z,96038.94
2023-04-04T13:35:07.966Z,96037.66
2023-04-04T13:40:09.858Z,96044.31
2023-04-04T13:45:11.727Z,96041.13
2023-04-04T13:50:13.214Z,96032.22
2023-04-04T13:55:14.691Z,96034.41
2023-04-04T14:00:17.079Z,96033.03
2023-04-04T14:05:19.082Z,96050.34
2023-04-04T14:10:20.610Z,96053.44
2023-04-04T14:15:22.066Z,96041.34
2023-04-04T14:20:23.500Z,96039.31
2023-04-04T14:25:24.939Z,96038.84
2023-04-04T14:30:26.411Z,96045.03
2023-04-04T14:35:27.890Z,96035.75
2023-04-04T14:40:29.431Z,96036.78
2023-04-04T14:45:30.935Z,96045.69
2023-04-04T14:50:32.435Z,96048.31
2023-04-04T14:55:33.886Z,96038.59
2023-04-04T15:00:35.342Z,96040.25
2023-04-04T15:05:36.769Z,96045.91
2023-04-04T15:10:38.432Z,96044.53
2023-04-04T15:15:40.201Z,96041.59
2023-04-04T15:20:42.324Z,96039.97
2023-04-04T15:25:43.922Z,96042.59
2023-04-04T15:30:45.323Z,96033.75
2023-04-04T15:35:46.746Z,96037.16
2023-04-04T15:40:48.223Z,96036.34
2023-04-04T15:45:50.179Z,96039.25
2023-04-04T15:50:51.740Z,96036.88
2023-04-04T15:55:53.164Z,96034.03
2023-04-04T16:00:54.733Z,96038.94
2023-04-04T16:05:56.192Z,96035.22
2023-04-04T16:10:58.152Z,96036.19
2023-04-04T16:15:59.709Z,96041.34
2023-04-04T16:21:03.314Z,96038.75
2023-04-04T16:26:05.222Z,96037.19
2023-04-04T16:31:06.750Z,96032.91
2023-04-04T16:36:08.396Z,96036.63
2023-04-04T16:41:09.887Z,96040.00
2023-04-04T16:46:11.439Z,96045.19
2023-04-04T16:51:13.129Z,96046.50
2023-04-04T16:56:14.612Z,96048.78
2023-04-04T17:01:16.159Z,96048.38
2023-04-04T17:06:17.659Z,96038.66
2023-04-04T17:11:19.130Z,96043.84
2023-04-04T17:16:20.580Z,96051.06
2023-04-04T17:21:22.091Z,96046.03
2023-04-04T17:26:23.601Z,96052.38
2023-04-04T17:31:25.255Z,96048.09
2023-04-04T17:36:26.778Z,96043.00
2023-04-04T17:41:28.298Z,96051.53
2023-04-04T17:46:29.908Z,96047.50
2023-04-04T17:51:31.438Z,96048.25
2023-04-04T17:56:32.876Z,96036.63
2023-04-04T18:01:34.432Z,96042.25
2023-04-04T18:06:38.429Z,96036.97
2023-04-04T18:11:40.926Z,96036.75
2023-04-04T18:16:42.534Z,96040.09
2023-04-04T18:21:47.494Z,96048.25
2023-04-04T18:26:48.931Z,96054.19
2023-04-04T18:31:51.009Z,96053.09
2023-04-04T18:36:52.570Z,96058.84
2023-04-04T18:41:54.103Z,96073.81
2023-04-04T18:46:55.621Z,96073.59
2023-04-04T18:51:57.896Z,96071.19
2023-04-04T18:56:59.387Z,96074.53
2023-04-04T19:02:00.826Z,96077.06
2023-04-04T19:07:05.808Z,96082.31
2023-04-04T19:12:07.318Z,96084.72
2023-04-04T19:17:08.774Z,96087.59
2023-04-04T19:22:10.190Z,96081.09
2023-04-04T19:27:11.644Z,96088.41
2023-04-04T19:32:16.952Z,96089.44
2023-04-04T19:37:18.569Z,96081.63
2023-04-04T19:42:29.138Z,96082.91
2023-04-04T19:47:30.721Z,96086.63
2023-04-04T19:52:32.276Z,96088.44
2023-04-04T19:57:34.017Z,96089.66
2023-04-04T20:02:53.200Z,96082.72
2023-04-04T20:07:55.678Z,96090.13
2023-04-04T20:12:57.330Z,96084.00
2023-04-04T20:17:58.978Z,96083.13
2023-04-04T20:23:00.851Z,96086.44
2023-04-04T20:28:05.165Z,96090.00
2023-04-04T20:33:40.254Z,96093.84
2023-04-04T20:38:41.995Z,96096.00
2023-04-04T20:43:51.725Z,96089.09
2023-04-04T20:48:54.650Z,96100.63
2023-04-04T20:54:01.798Z,96096.16
2023-04-04T20:59:28.613Z,96092.66
2023-04-04T21:09:50.092Z,96088.81
2023-04-04T21:15:03.862Z,96086.81
2023-04-04T21:20:17.381Z,96091.94
2023-04-04T21:25:42.836Z,96084.53
2023-04-04T21:30:46.000Z,96088.38
2023-04-04T21:35:57.291Z,96087.31
2023-04-04T21:41:27.043Z,96085.03
2023-04-04T21:46:34.181Z,96081.75
2023-04-04T21:51:39.007Z,96079.88
2023-04-04T21:56:41.614Z,96091.63
2023-04-04T22:01:43.275Z,96096.97
2023-04-04T22:06:44.890Z,96090.47
2023-04-04T22:11:46.531Z,96090.38
2023-04-04T22:16:48.345Z,96086.19
2023-04-04T22:21:50.112Z,96092.25
2023-04-04T22:26:51.750Z,96088.91
2023-04-04T22:31:53.323Z,96087.63
2023-04-04T22:36:54.936Z,96094.75
2023-04-04T22:41:56.375Z,96095.16
2023-04-04T22:46:57.801Z,96086.38
2023-04-04T22:51:59.263Z,96085.09
2023-04-04T22:57:00.762Z,96081.03
2023-04-04T23:02:02.268Z,96078.00
2023-04-04T23:07:03.697Z,96084.91
2023-04-04T23:12:05.345Z,96080.41
2023-04-04T23:17:06.808Z,96080.41
2023-04-04T23:22:08.355Z,96079.44
2023-04-04T23:27:10.125Z,96080.94
2023-04-04T23:32:11.570Z,96078.31
2023-04-04T23:37:13.007Z,96077.56
2023-04-04T23:42:14.450Z,96074.22
2023-04-04T23:47:15.929Z,96085.13
2023-04-04T23:52:17.430Z,96071.28
2023-04-04T23:57:18.868Z,96074.63
